Time;durP1;ratioP1;P1;durP2;ratioP2;P2;SDS_P1;SDS_P2;PMS_P1;PMS_P2;Temp;Humidity;BMP_temperature;BMP_pressure;BME280_temperature;BME280_humidity;BME280_pressure;Samples;Min_cycle;Max_cycle;Signal;HPM_P1;HPM_P2
2021/09/19 00:01:04;;;;;;;6.88;2.45;;;17.40;97.30;;;;;;5055566;28;20439;-74
2021/09/19 00:03:30;;;;;;;6.32;2.67;;;17.30;97.30;;;;;;5055496;28;20025;-74
2021/09/19 00:05:55;;;;;;;5.45;2.50;;;17.30;97.40;;;;;;5055473;28;20021;-74
2021/09/19 00:08:21;;;;;;;8.82;3.10;;;17.30;97.60;;;;;;5055344;28;20095;-74
2021/09/19 00:10:46;;;;;;;7.82;2.88;;;17.10;97.90;;;;;;5055363;28;20021;-74
2021/09/19 00:13:12;;;;;;;7.75;2.90;;;17.10;98.30;;;;;;5055642;28;20036;-74
2021/09/19 00:15:38;;;;;;;5.88;2.75;;;17.10;98.00;;;;;;5055282;28;20017;-74
2021/09/19 00:18:04;;;;;;;6.43;2.53;;;17.20;97.50;;;;;;5055506;28;20067;-74
2021/09/19 00:20:30;;;;;;;9.68;2.88;;;17.10;97.40;;;;;;5053972;28;20048;-74
2021/09/19 00:22:56;;;;;;;5.43;2.42;;;17.10;97.80;;;;;;5055183;28;20040;-74
2021/09/19 00:25:21;;;;;;;8.73;3.03;;;17.10;98.20;;;;;;5055333;28;20479;-74
2021/09/19 00:27:47;;;;;;;9.20;2.90;;;17.10;98.80;;;;;;5055351;28;20135;-74
2021/09/19 00:30:13;;;;;;;8.75;3.20;;;17.20;98.40;;;;;;5055281;28;20025;-74
2021/09/19 00:32:39;;;;;;;8.52;2.90;;;17.20;98.50;;;;;;5055491;28;20028;-74
2021/09/19 00:35:06;;;;;;;8.93;3.10;;;17.20;98.30;;;;;;5053691;28;20034;-74
2021/09/19 00:37:32;;;;;;;7.38;3.38;;;17.30;98.10;;;;;;5055393;28;20017;-74
2021/09/19 00:39:57;;;;;;;14.05;3.55;;;17.40;98.10;;;;;;5054844;28;20024;-74
2021/09/19 00:42:23;;;;;;;7.95;3.97;;;17.50;98.20;;;;;;5054735;28;20145;-74
2021/09/19 00:45:07;;;;;;;9.93;3.25;;;17.40;98.40;;;;;;5055036;28;20029;-74
2021/09/19 00:47:33;;;;;;;6.78;3.00;;;17.30;98.60;;;;;;5054710;28;20036;-74
2021/09/19 00:49:59;;;;;;;7.63;3.15;;;17.30;98.70;;;;;;5054627;28;20025;-74
2021/09/19 00:52:26;;;;;;;6.30;3.00;;;17.40;98.40;;;;;;5054675;28;20033;-74
2021/09/19 00:54:57;;;;;;;8.23;3.13;;;17.40;98.10;;;;;;5054505;28;20039;-74
2021/09/19 00:57:25;;;;;;;8.23;3.25;;;17.50;97.80;;;;;;5055074;28;20451;-74
2021/09/19 00:59:51;;;;;;;6.05;2.65;;;17.40;97.60;;;;;;5053961;28;20020;-74
2021/09/19 01:02:17;;;;;;;6.28;2.42;;;17.40;97.30;;;;;;5054971;28;20104;-74
2021/09/19 01:04:43;;;;;;;5.45;2.95;;;17.40;96.90;;;;;;5054415;28;20087;-74
2021/09/19 01:07:09;;;;;;;8.07;3.05;;;17.30;97.30;;;;;;5054421;28;20033;-74
2021/09/19 01:09:36;;;;;;;7.30;3.60;;;17.30;97.30;;;;;;5054274;28;20053;-74
2021/09/19 01:12:02;;;;;;;9.77;3.88;;;17.30;98.00;;;;;;5054510;28;20033;-74
2021/09/19 01:14:30;;;;;;;8.55;3.78;;;17.30;98.20;;;;;;5054159;28;20024;-74
2021/09/19 01:16:59;;;;;;;6.45;3.45;;;17.30;98.40;;;;;;5054650;28;20025;-74
2021/09/19 01:19:26;;;;;;;7.97;4.15;;;17.20;98.60;;;;;;5054339;28;20100;-74
2021/09/19 01:21:52;;;;;;;6.97;4.38;;;17.20;99.20;;;;;;5052981;28;20014;-74
2021/09/19 01:24:19;;;;;;;9.60;5.07;;;17.30;99.40;;;;;;5054518;28;20486;-74
2021/09/19 01:26:45;;;;;;;9.93;5.38;;;17.30;99.80;;;;;;5054226;28;20043;-74
2021/09/19 01:29:10;;;;;;;11.18;6.60;;;17.20;99.90;;;;;;5054139;28;20029;-74
2021/09/19 01:31:36;;;;;;;8.27;5.13;;;17.20;99.90;;;;;;5053833;28;20025;-74
2021/09/19 01:34:03;;;;;;;9.18;5.53;;;17.20;99.90;;;;;;5054293;28;20402;-74
2021/09/19 01:36:36;;;;;;;9.68;5.85;;;17.20;99.90;;;;;;5052476;28;20028;-74
2021/09/19 01:39:03;;;;;;;9.45;5.95;;;17.30;99.90;;;;;;5054055;28;20478;-74
2021/09/19 01:41:29;;;;;;;9.95;5.30;;;17.30;99.90;;;;;;5053780;28;20467;-74
2021/09/19 01:43:55;;;;;;;8.80;5.65;;;17.40;99.90;;;;;;5053582;28;20398;-74
2021/09/19 01:46:20;;;;;;;8.50;5.53;;;17.40;99.90;;;;;;5053607;28;20017;-74
2021/09/19 01:48:47;;;;;;;9.43;5.22;;;17.50;99.90;;;;;;5053836;28;20466;-74
2021/09/19 01:51:13;;;;;;;9.70;5.75;;;17.50;99.90;;;;;;5053573;28;20017;-74
2021/09/19 01:53:39;;;;;;;9.25;4.80;;;17.50;99.90;;;;;;5053464;28;20451;-74
2021/09/19 01:56:06;;;;;;;7.95;5.20;;;17.50;99.90;;;;;;5054028;28;20367;-74
2021/09/19 01:58:39;;;;;;;8.10;4.10;;;17.50;99.90;;;;;;5053291;28;20021;-74
2021/09/19 02:01:04;;;;;;;7.07;3.60;;;17.60;99.90;;;;;;5053681;28;20467;-74
2021/09/19 02:03:30;;;;;;;4.22;2.70;;;17.60;99.90;;;;;;5053572;28;20028;-74
2021/09/19 02:05:56;;;;;;;6.53;1.80;;;17.60;99.90;;;;;;5053550;28;20032;-74
2021/09/19 02:08:21;;;;;;;4.22;1.52;;;17.60;99.90;;;;;;5052081;28;20045;-74
2021/09/19 02:10:47;;;;;;;1.10;1.00;;;17.50;99.90;;;;;;5052846;28;20021;-74
2021/09/19 02:13:12;;;;;;;1.02;1.00;;;17.50;99.90;;;;;;5053070;28;20029;-74
2021/09/19 02:15:38;;;;;;;2.58;1.00;;;17.50;99.90;;;;;;5052916;28;20455;-74
2021/09/19 02:18:04;;;;;;;1.40;0.70;;;17.60;99.90;;;;;;5053428;28;20503;-74
2021/09/19 02:20:30;;;;;;;2.10;1.10;;;17.50;99.90;;;;;;5053153;28;20098;-74
2021/09/19 02:22:55;;;;;;;1.30;0.98;;;17.50;99.90;;;;;;5053633;28;20096;-74
2021/09/19 02:25:21;;;;;;;1.25;0.95;;;17.50;99.90;;;;;;5053062;28;20392;-74
2021/09/19 02:27:46;;;;;;;2.15;1.00;;;17.40;99.90;;;;;;5053583;28;20048;-74
2021/09/19 02:30:15;;;;;;;0.80;0.80;;;17.40;99.90;;;;;;5053078;28;20432;-74
2021/09/19 02:32:41;;;;;;;0.77;0.70;;;17.40;99.90;;;;;;5053295;28;20472;-74
2021/09/19 02:35:08;;;;;;;0.77;0.65;;;17.40;99.90;;;;;;5052886;28;20021;-74
2021/09/19 02:37:36;;;;;;;2.97;0.93;;;17.40;99.90;;;;;;5053560;28;20433;-75
2021/09/19 02:40:02;;;;;;;9.07;1.25;;;17.40;99.90;;;;;;5052955;28;20023;-74
2021/09/19 02:42:28;;;;;;;1.60;1.05;;;17.50;99.90;;;;;;5052962;28;20437;-74
2021/09/19 02:44:53;;;;;;;2.72;1.10;;;17.50;99.90;;;;;;5053194;28;20029;-74
2021/09/19 02:47:19;;;;;;;2.45;1.00;;;17.50;99.90;;;;;;5053162;28;20082;-74
2021/09/19 02:49:44;;;;;;;2.08;1.55;;;17.50;99.90;;;;;;5053439;28;20017;-75
2021/09/19 02:52:10;;;;;;;4.45;1.65;;;17.50;99.90;;;;;;5052840;28;20029;-74
2021/09/19 02:54:36;;;;;;;6.60;2.13;;;17.50;99.90;;;;;;5053023;28;20163;-74
2021/09/19 02:57:01;;;;;;;7.63;1.80;;;17.50;99.90;;;;;;5053083;28;20025;-74
2021/09/19 02:59:28;;;;;;;4.35;1.70;;;17.50;99.90;;;;;;5053231;28;20088;-74
2021/09/19 03:01:54;;;;;;;4.22;1.95;;;17.50;99.90;;;;;;5052769;28;20021;-75
2021/09/19 03:04:19;;;;;;;6.07;2.10;;;17.60;99.90;;;;;;5052770;28;20497;-74
2021/09/19 03:06:45;;;;;;;3.75;2.10;;;17.60;99.90;;;;;;5052961;28;20479;-74
2021/09/19 03:09:10;;;;;;;5.78;2.13;;;17.60;99.90;;;;;;5052272;28;20041;-74
2021/09/19 03:11:36;;;;;;;3.75;1.75;;;17.70;99.90;;;;;;5052891;28;20033;-74
2021/09/19 03:14:02;;;;;;;4.57;1.70;;;17.70;99.90;;;;;;5052362;28;20036;-75
2021/09/19 03:16:28;;;;;;;4.38;2.00;;;17.70;99.90;;;;;;5053153;28;20021;-75
2021/09/19 03:18:53;;;;;;;8.48;2.03;;;17.60;99.90;;;;;;5052827;28;20088;-74
2021/09/19 03:21:19;;;;;;;3.58;1.50;;;17.60;99.90;;;;;;5051270;28;20479;-74
2021/09/19 03:23:46;;;;;;;8.60;2.38;;;17.50;99.90;;;;;;5055228;28;20045;-74
2021/09/19 03:26:11;;;;;;;4.88;1.95;;;17.50;99.90;;;;;;5056256;28;20075;-74
2021/09/19 03:28:37;;;;;;;4.28;1.90;;;17.50;99.90;;;;;;5056212;28;20100;-74
2021/09/19 03:31:03;;;;;;;7.47;2.58;;;17.60;99.90;;;;;;5056161;28;20475;-74
2021/09/19 03:33:28;;;;;;;5.35;2.05;;;17.60;99.80;;;;;;5056121;28;20029;-74
2021/09/19 03:35:54;;;;;;;5.95;2.25;;;17.50;99.80;;;;;;5055946;28;20079;-74
2021/09/19 03:38:20;;;;;;;5.72;2.63;;;17.60;99.90;;;;;;5054751;28;20017;-74
2021/09/19 03:40:45;;;;;;;8.55;2.17;;;17.50;99.90;;;;;;5056262;28;20489;-75
2021/09/19 03:43:11;;;;;;;5.10;2.08;;;17.40;99.90;;;;;;5056228;28;20052;-74
2021/09/19 03:45:37;;;;;;;6.07;2.20;;;17.50;99.90;;;;;;5056168;28;20533;-75
2021/09/19 03:48:05;;;;;;;3.58;2.10;;;17.50;99.90;;;;;;5055860;28;20029;-74
2021/09/19 03:50:31;;;;;;;3.97;2.10;;;17.50;99.90;;;;;;5054518;28;20072;-75
2021/09/19 03:52:57;;;;;;;5.80;2.17;;;17.50;99.90;;;;;;5055717;28;20040;-74
2021/09/19 03:55:22;;;;;;;9.73;2.38;;;17.50;99.90;;;;;;5055659;28;20025;-74
2021/09/19 03:57:48;;;;;;;6.35;2.47;;;17.50;99.90;;;;;;5055654;28;20152;-74
2021/09/19 04:00:14;;;;;;;6.32;2.40;;;17.40;99.90;;;;;;5055521;28;20067;-74
2021/09/19 04:02:40;;;;;;;6.22;2.10;;;17.40;99.90;;;;;;5055579;28;20040;-74
2021/09/19 04:05:06;;;;;;;8.65;2.97;;;17.40;99.90;;;;;;5055814;28;20059;-74
2021/09/19 04:07:32;;;;;;;9.82;3.22;;;17.40;99.90;;;;;;5055426;28;20058;-74
2021/09/19 04:09:57;;;;;;;7.28;2.45;;;17.30;99.90;;;;;;5055673;28;20029;-74
2021/09/19 04:12:23;;;;;;;12.73;3.00;;;17.30;99.80;;;;;;5055677;28;20510;-74
2021/09/19 04:14:49;;;;;;;9.25;3.20;;;17.30;99.50;;;;;;5055254;28;20028;-74
2021/09/19 04:17:14;;;;;;;8.65;3.00;;;17.30;99.10;;;;;;5055583;28;20021;-74
2021/09/19 04:19:40;;;;;;;7.00;2.50;;;17.20;99.10;;;;;;5055264;28;20028;-74
2021/09/19 04:22:06;;;;;;;7.82;3.10;;;17.20;99.60;;;;;;5055171;28;20021;-74
2021/09/19 04:24:31;;;;;;;5.93;2.33;;;17.20;98.40;;;;;;5053884;28;20063;-74
2021/09/19 04:26:57;;;;;;;9.40;2.70;;;17.10;98.20;;;;;;5055130;28;20112;-74
2021/09/19 04:29:22;;;;;;;8.73;2.33;;;17.10;97.70;;;;;;5055384;28;20025;-74
2021/09/19 04:31:48;;;;;;;10.88;2.47;;;17.00;97.80;;;;;;5055583;28;20147;-74
2021/09/19 04:34:14;;;;;;;6.53;2.08;;;17.00;97.90;;;;;;5054377;28;20029;-74
2021/09/19 04:36:40;;;;;;;6.25;2.30;;;17.00;97.50;;;;;;5054914;28;20471;-75
2021/09/19 04:39:06;;;;;;;7.22;2.55;;;17.10;97.20;;;;;;5054931;28;20058;-74
2021/09/19 04:41:32;;;;;;;8.13;2.05;;;17.00;96.70;;;;;;5054858;28;20041;-74
2021/09/19 04:43:57;;;;;;;9.75;2.20;;;17.00;96.30;;;;;;5054837;28;20147;-74
2021/09/19 04:46:23;;;;;;;6.18;2.15;;;16.90;96.70;;;;;;5053552;28;20052;-74
2021/09/19 04:48:53;;;;;;;10.25;2.72;;;17.00;96.30;;;;;;5054747;28;20028;-74
2021/09/19 04:51:19;;;;;;;6.25;1.95;;;16.90;96.20;;;;;;5055249;28;20036;-74
2021/09/19 04:53:45;;;;;;;7.35;1.73;;;16.90;96.10;;;;;;5054597;28;20017;-74
2021/09/19 04:56:11;;;;;;;6.32;2.08;;;16.90;96.00;;;;;;5054798;28;20029;-74
2021/09/19 04:58:36;;;;;;;8.15;1.95;;;16.90;95.60;;;;;;5054656;28;20017;-74
2021/09/19 05:01:02;;;;;;;6.63;1.92;;;16.90;95.40;;;;;;5054484;28;20024;-74
2021/09/19 05:03:28;;;;;;;7.70;2.53;;;16.80;95.60;;;;;;5054445;28;20020;-74
2021/09/19 05:05:53;;;;;;;7.32;2.25;;;16.80;95.90;;;;;;5054419;28;20033;-75
2021/09/19 05:08:19;;;;;;;9.27;2.10;;;16.80;95.80;;;;;;5054138;28;20049;-74
2021/09/19 05:10:45;;;;;;;8.57;2.03;;;16.80;95.70;;;;;;5054822;28;20021;-74
2021/09/19 05:13:11;;;;;;;6.82;1.92;;;16.80;95.40;;;;;;5054233;28;20566;-74
2021/09/19 05:15:36;;;;;;;5.20;1.65;;;16.80;95.40;;;;;;5054353;28;20032;-74
2021/09/19 05:18:02;;;;;;;6.22;1.60;;;16.80;94.90;;;;;;5054118;28;20075;-74
2021/09/19 05:20:28;;;;;;;7.93;1.73;;;16.80;95.00;;;;;;5054092;28;20024;-74
2021/09/19 05:22:53;;;;;;;5.85;1.50;;;16.80;94.80;;;;;;5054312;28;20032;-74
2021/09/19 05:25:19;;;;;;;4.07;1.38;;;16.80;94.60;;;;;;5053984;28;20032;-74
2021/09/19 05:27:45;;;;;;;5.25;1.50;;;16.80;94.60;;;;;;5053950;28;20021;-74
2021/09/19 05:30:12;;;;;;;5.15;1.30;;;16.80;93.70;;;;;;5054189;28;20029;-75
2021/09/19 05:32:38;;;;;;;3.53;1.30;;;16.70;93.50;;;;;;5053920;28;20024;-74
2021/09/19 05:35:05;;;;;;;7.03;1.92;;;16.70;93.60;;;;;;5053761;28;20107;-74
2021/09/19 05:37:31;;;;;;;4.82;1.25;;;16.70;93.70;;;;;;5054052;28;20407;-75
2021/09/19 05:39:56;;;;;;;5.80;1.45;;;16.70;93.80;;;;;;5053780;28;20027;-74
2021/09/19 05:42:22;;;;;;;5.13;1.45;;;16.70;94.60;;;;;;5054001;28;20099;-74
2021/09/19 05:44:47;;;;;;;2.75;1.10;;;16.60;94.20;;;;;;5054184;28;20112;-74
2021/09/19 05:47:13;;;;;;;5.85;1.33;;;16.70;94.10;;;;;;5053563;28;20024;-74
2021/09/19 05:49:39;;;;;;;5.85;1.75;;;16.70;94.00;;;;;;5053622;28;20103;-74
2021/09/19 05:52:04;;;;;;;7.68;2.30;;;16.70;93.90;;;;;;5053759;28;20039;-74
2021/09/19 05:54:30;;;;;;;3.97;1.65;;;16.70;93.30;;;;;;5053669;28;20104;-74
2021/09/19 05:56:56;;;;;;;8.25;1.83;;;16.70;93.30;;;;;;5053692;28;20379;-75
2021/09/19 05:59:21;;;;;;;5.18;1.65;;;16.70;93.20;;;;;;5053292;28;20040;-74
2021/09/19 06:01:47;;;;;;;5.90;1.40;;;16.70;93.20;;;;;;5053359;28;20021;-74
2021/09/19 06:04:12;;;;;;;7.38;1.63;;;16.70;92.90;;;;;;5053249;28;20025;-74
2021/09/19 06:06:38;;;;;;;4.85;1.13;;;16.70;93.10;;;;;;5053547;28;20142;-74
2021/09/19 06:09:04;;;;;;;6.68;1.52;;;16.60;92.80;;;;;;5052838;28;20056;-74
2021/09/19 06:11:29;;;;;;;4.05;1.50;;;16.60;93.30;;;;;;5053491;28;20043;-74
2021/09/19 06:13:55;;;;;;;5.30;1.40;;;16.70;92.90;;;;;;5053157;28;20061;-74
2021/09/19 06:16:21;;;;;;;6.32;1.38;;;16.70;92.30;;;;;;5053166;28;20024;-74
2021/09/19 06:18:46;;;;;;;3.88;1.75;;;16.70;92.40;;;;;;5053154;28;20453;-74
2021/09/19 06:21:12;;;;;;;5.72;2.03;;;16.60;92.60;;;;;;5053153;28;20478;-74
2021/09/19 06:23:37;;;;;;;6.95;1.70;;;16.50;92.40;;;;;;5053078;28;20025;-75
2021/09/19 06:26:03;;;;;;;6.50;1.50;;;16.60;92.80;;;;;;5053140;28;20028;-74
2021/09/19 06:28:29;;;;;;;5.78;1.17;;;16.50;92.50;;;;;;5053036;28;20070;-74
2021/09/19 06:30:54;;;;;;;6.50;1.38;;;16.60;92.60;;;;;;5053041;28;20104;-74
2021/09/19 06:33:20;;;;;;;3.65;1.20;;;16.60;92.70;;;;;;5051748;28;20098;-74
2021/09/19 06:35:47;;;;;;;5.03;1.25;;;16.50;92.80;;;;;;5052921;28;20024;-75
2021/09/19 06:38:12;;;;;;;4.78;1.15;;;16.60;92.80;;;;;;5053015;28;20021;-74
2021/09/19 06:40:38;;;;;;;4.10;1.52;;;16.60;92.80;;;;;;5052952;28;20075;-74
2021/09/19 06:43:04;;;;;;;7.95;1.75;;;16.70;92.50;;;;;;5051661;28;20078;-74
2021/09/19 06:45:29;;;;;;;3.97;1.25;;;16.70;92.60;;;;;;5053158;28;20021;-74
2021/09/19 06:47:55;;;;;;;5.28;1.30;;;16.70;92.40;;;;;;5052885;28;20029;-74
2021/09/19 06:50:20;;;;;;;7.95;1.85;;;16.80;92.30;;;;;;5052866;28;20072;-74
2021/09/19 06:52:46;;;;;;;5.85;1.83;;;16.80;92.20;;;;;;5053086;28;20487;-74
2021/09/19 06:55:12;;;;;;;4.13;1.45;;;16.70;92.20;;;;;;5052957;28;20022;-74
2021/09/19 06:57:37;;;;;;;5.93;1.42;;;16.80;92.40;;;;;;5054065;28;20079;-74
2021/09/19 07:00:04;;;;;;;7.38;1.77;;;16.80;92.60;;;;;;5056710;28;20420;-74
2021/09/19 07:02:30;;;;;;;6.90;1.70;;;16.80;92.40;;;;;;5056683;28;20036;-74
2021/09/19 07:04:56;;;;;;;6.43;1.40;;;16.80;92.70;;;;;;5056655;28;20021;-74
2021/09/19 07:07:21;;;;;;;5.13;1.80;;;16.90;92.40;;;;;;5056858;28;20048;-74
2021/09/19 07:09:47;;;;;;;2.60;1.10;;;16.90;92.20;;;;;;5056877;28;20033;-74
2021/09/19 07:12:12;;;;;;;4.57;1.42;;;17.00;92.40;;;;;;5056538;28;20031;-74
2021/09/19 07:14:38;;;;;;;3.40;1.10;;;17.00;92.30;;;;;;5055660;28;20028;-75
2021/09/19 07:17:04;;;;;;;6.57;1.38;;;17.10;92.30;;;;;;5056446;28;20029;-74
2021/09/19 07:19:29;;;;;;;3.30;1.27;;;17.00;92.30;;;;;;5056362;28;20025;-74
2021/09/19 07:21:55;;;;;;;6.22;1.80;;;17.00;92.30;;;;;;5056382;28;20031;-75
2021/09/19 07:24:20;;;;;;;8.77;1.95;;;17.00;92.40;;;;;;5056549;28;20025;-74
2021/09/19 07:26:46;;;;;;;8.00;1.35;;;17.00;92.50;;;;;;5056250;28;20057;-74
2021/09/19 07:29:12;;;;;;;6.07;1.42;;;17.10;92.70;;;;;;5056233;28;20108;-75
2021/09/19 07:31:38;;;;;;;3.47;1.55;;;17.10;92.50;;;;;;5056261;28;20032;-74
2021/09/19 07:34:04;;;;;;;4.50;1.52;;;17.10;92.60;;;;;;5056346;28;20474;-74
2021/09/19 07:36:34;;;;;;;6.85;1.48;;;17.20;92.50;;;;;;5056332;28;20020;-74
2021/09/19 07:39:05;;;;;;;6.78;1.40;;;17.20;92.50;;;;;;5055995;28;20103;-74
2021/09/19 07:41:32;;;;;;;3.95;1.33;;;17.20;92.50;;;;;;5056062;28;20025;-74
2021/09/19 07:43:58;;;;;;;4.78;1.42;;;17.20;92.30;;;;;;5055974;28;20023;-75
2021/09/19 07:46:25;;;;;;;8.70;1.77;;;17.30;92.20;;;;;;5055922;28;20021;-75
2021/09/19 07:48:51;;;;;;;6.90;1.58;;;17.30;92.20;;;;;;5056415;28;20371;-74
2021/09/19 07:51:17;;;;;;;5.57;1.58;;;17.30;92.50;;;;;;5055756;28;20034;-74
2021/09/19 07:53:45;;;;;;;5.00;1.83;;;17.30;92.40;;;;;;5056067;28;20021;-75
2021/09/19 07:56:11;;;;;;;4.43;1.38;;;17.50;92.30;;;;;;5055650;28;20165;-74
2021/09/19 07:58:36;;;;;;;5.55;1.38;;;17.50;92.30;;;;;;5055443;28;20502;-74
2021/09/19 08:01:03;;;;;;;5.85;1.40;;;17.50;92.20;;;;;;5055629;28;20021;-74
2021/09/19 08:03:28;;;;;;;4.22;1.20;;;17.50;92.00;;;;;;5055835;28;20025;-75
2021/09/19 08:05:54;;;;;;;6.55;1.95;;;17.50;92.30;;;;;;5055334;28;20033;-74
2021/09/19 08:08:20;;;;;;;5.45;1.63;;;17.50;92.30;;;;;;5055277;28;20049;-75
2021/09/19 08:10:46;;;;;;;7.63;1.70;;;17.60;92.10;;;;;;5054297;28;20028;-74
2021/09/19 08:13:12;;;;;;;6.28;1.38;;;17.70;91.40;;;;;;5055722;28;20021;-74
2021/09/19 08:15:38;;;;;;;5.25;1.40;;;17.60;91.80;;;;;;5055295;28;20074;-74
2021/09/19 08:18:04;;;;;;;3.88;1.40;;;17.70;92.00;;;;;;5055861;28;20029;-75
2021/09/19 08:20:29;;;;;;;5.63;1.30;;;17.90;90.90;;;;;;5055834;28;20032;-74
2021/09/19 08:22:55;;;;;;;4.18;1.25;;;18.00;91.40;;;;;;5055235;28;20032;-74
2021/09/19 08:25:22;;;;;;;6.82;1.85;;;18.20;90.90;;;;;;5055185;28;20025;-74
2021/09/19 08:27:47;;;;;;;5.05;1.20;;;18.20;90.50;;;;;;5055098;28;20391;-75
2021/09/19 08:30:15;;;;;;;4.90;1.63;;;18.20;90.40;;;;;;5055374;28;20029;-74
2021/09/19 08:32:41;;;;;;;5.70;1.50;;;18.50;89.80;;;;;;5055006;28;20079;-75
2021/09/19 08:35:08;;;;;;;4.03;1.90;;;18.50;88.90;;;;;;5055142;28;20033;-74
2021/09/19 08:37:34;;;;;;;3.22;1.15;;;18.50;89.00;;;;;;5055204;28;20025;-74
2021/09/19 08:40:00;;;;;;;4.53;1.45;;;18.40;89.00;;;;;;5054887;28;20021;-74
2021/09/19 08:42:26;;;;;;;5.10;1.38;;;18.60;89.10;;;;;;5054845;28;20361;-74
2021/09/19 08:44:51;;;;;;;4.50;1.25;;;19.00;86.60;;;;;;5054786;28;20036;-75
2021/09/19 08:47:17;;;;;;;6.53;1.58;;;19.50;84.50;;;;;;5053421;28;20029;-75
2021/09/19 08:49:44;;;;;;;7.60;3.78;;;20.10;82.10;;;;;;5054977;28;20035;-75
2021/09/19 08:52:11;;;;;;;5.97;1.33;;;20.40;80.80;;;;;;5054919;28;20031;-75
2021/09/19 08:54:37;;;;;;;7.72;2.13;;;20.50;79.00;;;;;;5054593;28;20029;-74
2021/09/19 08:57:04;;;;;;;3.00;1.33;;;20.50;78.40;;;;;;5055106;28;20013;-74
2021/09/19 09:00:00;;;;;;;5.20;1.77;;;20.60;78.60;;;;;;5054425;28;20052;-75
2021/09/19 09:02:26;;;;;;;7.20;1.80;;;20.90;77.10;;;;;;5051972;28;20025;-75
2021/09/19 09:04:56;;;;;;;3.40;1.27;;;21.30;75.80;;;;;;5054143;28;20510;-75
2021/09/19 09:07:24;;;;;;;5.95;1.58;;;21.50;73.80;;;;;;5054110;28;20041;-75
2021/09/19 09:09:55;;;;;;;4.68;1.42;;;21.60;73.40;;;;;;5052820;28;20031;-74
2021/09/19 09:12:22;;;;;;;4.72;1.23;;;21.70;72.60;;;;;;5054243;28;20024;-75
2021/09/19 09:14:54;;;;;;;7.38;2.03;;;21.80;72.10;;;;;;5054116;28;20036;-75
2021/09/19 09:17:23;;;;;;;6.15;1.65;;;22.00;72.40;;;;;;5054691;28;20017;-75
2021/09/19 09:19:53;;;;;;;3.88;1.45;;;22.40;71.80;;;;;;5053876;28;20112;-75
2021/09/19 09:22:22;;;;;;;5.63;1.60;;;22.70;70.50;;;;;;5053975;28;20017;-75
2021/09/19 09:25:08;;;;;;;4.28;1.20;;;22.70;68.60;;;;;;5053947;28;20029;-75
2021/09/19 09:27:43;;;;;;;4.20;1.48;;;22.80;68.20;;;;;;5053939;28;20025;-75
2021/09/19 09:30:10;;;;;;;8.55;1.85;;;23.00;67.90;;;;;;5054451;28;20040;-75
2021/09/19 09:33:01;;;;;;;6.03;1.50;;;23.00;66.40;;;;;;5054117;28;20017;-75
2021/09/19 09:35:40;;;;;;;5.32;1.25;;;23.30;66.50;;;;;;5052226;28;20032;-75
2021/09/19 09:38:23;;;;;;;4.13;1.35;;;23.50;65.80;;;;;;5054074;28;20017;-75
2021/09/19 09:40:50;;;;;;;4.93;1.30;;;23.90;64.50;;;;;;5053608;28;20029;-75
2021/09/19 09:43:18;;;;;;;6.68;1.58;;;23.90;63.50;;;;;;5052322;28;20544;-75
2021/09/19 09:45:46;;;;;;;3.67;1.67;;;24.00;63.10;;;;;;5053570;28;20079;-75
2021/09/19 09:48:31;;;;;;;6.22;1.20;;;24.10;62.70;;;;;;5053870;28;20420;-75
2021/09/19 09:50:59;;;;;;;4.07;1.38;;;23.80;62.30;;;;;;5053575;28;20025;-75
2021/09/19 09:53:25;;;;;;;3.28;0.93;;;23.60;63.20;;;;;;5053522;28;20028;-75
2021/09/19 09:55:53;;;;;;;4.95;1.20;;;23.70;62.60;;;;;;5053403;28;20536;-75
2021/09/19 09:58:20;;;;;;;3.55;1.25;;;23.90;62.00;;;;;;5053648;28;20025;-75
2021/09/19 10:00:47;;;;;;;3.25;1.13;;;24.00;61.80;;;;;;5053454;28;20101;-75
2021/09/19 10:03:14;;;;;;;3.72;1.02;;;24.00;62.80;;;;;;5053405;28;20390;-75
2021/09/19 10:05:40;;;;;;;4.50;1.20;;;23.80;64.00;;;;;;5053370;28;20021;-75
2021/09/19 10:08:06;;;;;;;4.88;1.40;;;23.50;63.70;;;;;;5051856;28;20068;-75
2021/09/19 10:10:38;;;;;;;3.65;1.20;;;23.70;63.20;;;;;;5053283;28;20115;-75
2021/09/19 10:13:04;;;;;;;4.93;1.10;;;23.90;62.90;;;;;;5051763;28;20478;-75
2021/09/19 10:15:30;;;;;;;3.17;0.95;;;24.00;63.00;;;;;;5053160;28;20094;-75
2021/09/19 10:17:56;;;;;;;4.63;1.10;;;24.10;61.70;;;;;;5053471;28;20032;-74
2021/09/19 10:20:40;;;;;;;5.45;1.55;;;24.00;61.60;;;;;;5053199;28;20021;-75
2021/09/19 10:23:22;;;;;;;3.88;1.00;;;23.80;62.70;;;;;;5053357;28;20086;-75
2021/09/19 10:25:49;;;;;;;3.22;1.10;;;23.70;64.50;;;;;;5053317;28;20036;-75
2021/09/19 10:28:18;;;;;;;3.25;1.10;;;23.30;64.60;;;;;;5053308;28;20025;-74
2021/09/19 10:31:12;;;;;;;3.58;1.25;;;23.10;65.50;;;;;;5053534;28;20479;-75
2021/09/19 10:33:43;;;;;;;3.92;1.00;;;22.90;65.60;;;;;;5052144;28;20024;-75
2021/09/19 10:36:11;;;;;;;5.03;1.30;;;22.80;66.90;;;;;;5053157;28;20467;-75
2021/09/19 10:38:40;;;;;;;3.75;1.20;;;22.50;67.50;;;;;;5052972;28;20394;-75
2021/09/19 10:41:12;;;;;;;4.20;1.10;;;22.30;68.00;;;;;;5052907;28;20028;-75
2021/09/19 10:43:52;;;;;;;6.15;1.08;;;22.20;68.10;;;;;;5052904;28;20068;-75
2021/09/19 10:46:36;;;;;;;;;;;22.30;68.70;;;;;;5053362;28;20078;-75
2021/09/19 10:49:19;;;;;;;1.50;0.65;;;22.40;70.20;;;;;;5053434;28;19904;-75
2021/09/19 10:51:59;;;;;;;5.88;1.13;;;22.30;68.20;;;;;;5053169;28;20442;-75
2021/09/19 10:54:46;;;;;;;3.47;1.10;;;22.40;68.90;;;;;;5051449;28;20495;-75
2021/09/19 10:57:29;;;;;;;2.65;1.10;;;22.40;68.90;;;;;;5052695;28;20013;-74
2021/09/19 11:00:15;;;;;;;2.53;0.88;;;22.60;69.00;;;;;;5052719;28;20029;-75
2021/09/19 11:02:58;;;;;;;5.30;1.48;;;22.40;67.50;;;;;;5053205;28;20086;-74
2021/09/19 11:05:30;;;;;;;4.85;1.05;;;22.40;68.50;;;;;;5052575;28;20036;-75
2021/09/19 11:08:07;;;;;;;3.03;0.98;;;22.10;67.90;;;;;;5052605;28;20102;-75
2021/09/19 11:10:45;;;;;;;3.53;1.10;;;21.80;70.80;;;;;;5052590;28;20032;-75
2021/09/19 11:13:28;;;;;;;3.10;0.95;;;21.80;70.70;;;;;;5052514;28;20495;-75
2021/09/19 11:16:18;;;;;;;3.38;1.20;;;22.00;71.60;;;;;;5052845;28;20036;-75
2021/09/19 11:18:56;;;;;;;5.05;1.25;;;22.20;70.60;;;;;;5053167;28;20086;-75
2021/09/19 11:21:21;;;;;;;3.85;1.73;;;22.30;69.30;;;;;;5052887;28;20039;-75
2021/09/19 11:24:00;;;;;;;4.53;1.60;;;22.50;70.20;;;;;;5052527;28;20021;-75
2021/09/19 11:26:34;;;;;;;3.70;1.67;;;22.40;69.90;;;;;;5052864;28;20498;-75
2021/09/19 11:29:08;;;;;;;5.05;1.63;;;22.30;70.40;;;;;;5052854;28;20017;-74
2021/09/19 11:31:35;;;;;;;3.75;0.85;;;22.30;70.90;;;;;;5052798;28;20098;-75
2021/09/19 11:34:10;;;;;;;4.15;1.20;;;22.20;71.50;;;;;;5052370;28;20017;-75
2021/09/19 11:36:42;;;;;;;2.63;0.85;;;22.20;70.30;;;;;;5052733;28;20029;-75
2021/09/19 11:39:09;;;;;;;2.30;0.80;;;22.30;71.20;;;;;;5052737;28;20024;-74
2021/09/19 11:41:35;;;;;;;7.20;1.27;;;22.50;69.30;;;;;;5052387;28;20055;-75
2021/09/19 11:44:02;;;;;;;1.40;0.55;;;22.40;68.60;;;;;;5053648;28;20512;-74
2021/09/19 11:46:29;;;;;;;2.20;0.82;;;22.20;69.10;;;;;;5055909;28;20369;-74
2021/09/19 11:48:57;;;;;;;3.67;0.75;;;22.00;70.00;;;;;;5056431;28;20035;-75
2021/09/19 11:51:24;;;;;;;3.95;1.00;;;22.00;69.00;;;;;;5055801;28;20023;-74
2021/09/19 11:53:53;;;;;;;3.20;1.10;;;22.10;70.40;;;;;;5056093;28;20021;-74
2021/09/19 11:56:21;;;;;;;1.77;0.90;;;22.10;71.20;;;;;;5056205;28;20378;-75
2021/09/19 11:58:49;;;;;;;3.25;1.10;;;22.00;72.10;;;;;;5055653;28;20082;-74
2021/09/19 12:01:15;;;;;;;2.38;1.00;;;22.00;73.30;;;;;;5055690;28;20390;-74
2021/09/19 12:03:41;;;;;;;4.32;1.25;;;22.20;72.00;;;;;;5055632;28;20026;-75
2021/09/19 12:06:09;;;;;;;4.10;1.05;;;22.30;71.20;;;;;;5055812;28;20032;-74
2021/09/19 12:08:40;;;;;;;3.53;1.25;;;22.50;71.40;;;;;;5055335;28;20051;-75
2021/09/19 12:11:06;;;;;;;2.40;0.90;;;22.50;69.90;;;;;;5055818;28;20621;-75
2021/09/19 12:13:35;;;;;;;4.57;1.17;;;22.50;71.50;;;;;;5055749;28;20100;-75
2021/09/19 12:16:13;;;;;;;3.55;1.05;;;22.60;72.50;;;;;;5055344;28;20112;-75
2021/09/19 12:18:49;;;;;;;4.35;1.10;;;22.70;74.00;;;;;;5055982;28;20036;-75
2021/09/19 12:21:15;;;;;;;2.05;1.00;;;22.80;71.30;;;;;;5055597;28;20107;-75
2021/09/19 12:23:50;;;;;;;2.35;0.88;;;22.70;72.70;;;;;;5055581;28;20071;-75
2021/09/19 12:26:22;;;;;;;2.78;0.80;;;22.40;73.10;;;;;;5055536;28;20029;-74
2021/09/19 12:28:57;;;;;;;5.40;0.93;;;22.30;74.60;;;;;;5055744;28;20029;-75
2021/09/19 12:31:44;;;;;;;3.08;0.85;;;22.40;72.60;;;;;;5055745;28;20360;-74
2021/09/19 12:34:14;;;;;;;3.28;1.05;;;22.40;71.60;;;;;;5055011;28;20032;-74
2021/09/19 12:36:44;;;;;;;4.05;0.80;;;22.50;72.60;;;;;;5055006;28;20052;-75
2021/09/19 12:39:36;;;;;;;4.45;1.10;;;22.60;72.40;;;;;;5055283;28;20110;-74
2021/09/19 12:42:05;;;;;;;3.08;1.00;;;22.60;71.40;;;;;;5052343;28;20064;-74
2021/09/19 12:44:33;;;;;;;4.17;1.30;;;22.60;71.60;;;;;;5055202;28;20025;-74
2021/09/19 12:47:08;;;;;;;3.92;1.45;;;22.60;71.20;;;;;;5054836;28;20043;-74
2021/09/19 12:49:43;;;;;;;3.05;1.10;;;22.60;72.20;;;;;;5055047;28;20029;-75
2021/09/19 12:52:10;;;;;;;2.47;1.08;;;22.50;70.00;;;;;;5055289;28;20384;-75